createdAt,value
2023-04-23T00:01:04.390Z,96058.69
2023-04-23T00:03:33.450Z,96057.09
2023-04-23T00:06:04.726Z,96048.63
2023-04-23T00:08:33.257Z,96047.47
2023-04-23T00:11:01.308Z,96039.25
2023-04-23T00:13:30.779Z,96038.88
2023-04-23T00:15:59.056Z,96050.81
2023-04-23T00:18:27.003Z,96046.44
2023-04-23T00:20:54.672Z,96041.63
2023-04-23T00:23:22.452Z,96042.66
2023-04-23T00:25:50.581Z,96044.84
2023-04-23T00:28:19.620Z,96036.75
2023-04-23T00:30:51.095Z,96037.69
2023-04-23T00:33:18.926Z,96044.56
2023-04-23T00:35:46.556Z,96052.78
2023-04-23T00:38:14.142Z,96060.81
2023-04-23T00:40:42.149Z,96046.00
2023-04-23T00:43:09.940Z,96051.63
2023-04-23T00:45:37.752Z,96054.16
2023-04-23T00:48:08.070Z,96045.66
2023-04-23T00:50:35.643Z,96047.84
2023-04-23T00:53:03.216Z,96041.94
2023-04-23T00:55:30.958Z,96049.59
2023-04-23T00:57:58.558Z,96043.91
2023-04-23T01:00:26.301Z,96044.72
2023-04-23T01:02:54.798Z,96048.91
2023-04-23T01:05:24.943Z,96046.28
2023-04-23T01:07:52.633Z,96042.66
2023-04-23T01:10:20.987Z,96054.75
2023-04-23T01:12:49.801Z,96046.28
2023-04-23T01:15:17.490Z,96048.91
2023-04-23T01:17:45.173Z,96052.13
2023-04-23T01:20:13.139Z,96064.84
2023-04-23T01:22:42.183Z,96060.97
2023-04-23T01:25:10.806Z,96067.78
2023-04-23T01:27:38.807Z,96066.00
2023-04-23T01:30:07.684Z,96072.63
2023-04-23T01:32:36.422Z,96075.25
2023-04-23T01:35:05.061Z,96075.66
2023-04-23T01:37:33.680Z,96074.28
2023-04-23T01:40:02.690Z,96074.88
2023-04-23T01:42:30.425Z,96073.72
2023-04-23T01:44:58.064Z,96068.47
2023-04-23T01:47:26.182Z,96077.72
2023-04-23T01:49:54.024Z,96082.16
2023-04-23T01:52:21.659Z,96081.59
2023-04-23T01:54:49.299Z,96082.63
2023-04-23T01:57:23.936Z,96085.03
2023-04-23T01:59:51.710Z,96087.88
2023-04-23T02:02:19.778Z,96086.03
2023-04-23T02:04:49.299Z,96096.19
2023-04-23T02:07:17.106Z,96098.00
2023-04-23T02:09:44.778Z,96095.59
2023-04-23T02:12:12.381Z,96096.84
2023-04-23T02:14:41.592Z,96107.56
2023-04-23T02:17:09.478Z,96098.47
2023-04-23T02:19:37.088Z,96107.91
2023-04-23T02:22:04.716Z,96100.84
2023-04-23T02:24:32.266Z,96108.72
2023-04-23T02:26:59.881Z,96110.53
2023-04-23T02:29:27.445Z,96115.00
2023-04-23T02:31:56.543Z,96110.41
2023-04-23T02:34:24.150Z,96107.88
2023-04-23T02:36:52.726Z,96113.94
2023-04-23T02:39:20.596Z,96115.53
2023-04-23T02:41:48.215Z,96108.13
2023-04-23T02:44:15.888Z,96108.56
2023-04-23T02:46:43.527Z,96106.72
2023-04-23T02:49:12.465Z,96109.16
2023-04-23T02:51:40.046Z,96112.78
2023-04-23T02:54:07.604Z,96112.78
2023-04-23T02:56:35.224Z,96113.56
2023-04-23T02:59:02.805Z,96113.56
2023-04-23T03:01:30.469Z,96115.41
2023-04-23T03:03:58.389Z,96117.09
2023-04-23T03:06:27.749Z,96122.53
2023-04-23T03:08:55.990Z,96118.16
2023-04-23T03:11:23.727Z,96127.28
2023-04-23T03:13:51.328Z,96109.91
2023-04-23T03:16:18.989Z,96125.88
2023-04-23T03:18:46.603Z,96119.03
2023-04-23T03:21:14.252Z,96120.25
2023-04-23T03:23:43.221Z,96123.31
2023-04-23T03:26:10.809Z,96123.97
2023-04-23T03:28:38.418Z,96117.13
2023-04-23T03:31:06.107Z,96122.34
2023-04-23T03:33:33.702Z,96127.59
2023-04-23T03:36:01.283Z,96125.56
2023-04-23T03:38:29.038Z,96124.78
2023-04-23T03:40:58.066Z,96126.59
2023-04-23T03:43:25.783Z,96134.88
2023-04-23T03:45:53.396Z,96131.25
2023-04-23T03:48:21.679Z,96132.84
2023-04-23T03:50:49.437Z,96132.06
2023-04-23T03:53:17.689Z,96139.34
2023-04-23T03:55:45.640Z,96140.94
2023-04-23T03:58:14.669Z,96135.69
2023-04-23T04:00:42.309Z,96136.50
2023-04-23T04:03:10.022Z,96141.75
2023-04-23T04:05:37.796Z,96133.88
2023-04-23T04:08:05.839Z,96132.25
2023-04-23T04:10:33.437Z,96124.84
2023-04-23T04:13:01.521Z,96131.66
2023-04-23T04:15:30.652Z,96130.09
2023-04-23T04:17:58.179Z,96131.53
2023-04-23T04:20:25.788Z,96128.16
2023-04-23T04:22:53.573Z,96127.78
2023-04-23T04:25:22.233Z,96124.19
2023-04-23T04:27:50.560Z,96117.59
2023-04-23T04:30:18.676Z,96121.06
2023-04-23T04:32:50.858Z,96116.06
2023-04-23T04:35:18.987Z,96119.03
2023-04-23T04:37:46.617Z,96120.88
2023-04-23T04:40:15.266Z,96139.16
2023-04-23T04:42:42.849Z,96143.41
2023-04-23T04:45:11.663Z,96144.03
2023-04-23T04:47:39.264Z,96147.88
2023-04-23T04:50:09.346Z,96153.16
2023-04-23T04:52:37.077Z,96148.56
2023-04-23T04:55:05.342Z,96150.00
2023-04-23T04:57:32.941Z,96143.22
2023-04-23T05:00:05.121Z,96139.59
2023-04-23T05:02:32.940Z,96148.22
2023-04-23T05:05:00.625Z,96137.75
2023-04-23T05:07:29.648Z,96144.81
2023-04-23T05:09:57.220Z,96136.56
2023-04-23T05:12:24.969Z,96133.13
2023-04-23T05:14:54.257Z,96140.75
2023-04-23T05:17:22.043Z,96139.13
2023-04-23T05:19:49.685Z,96145.09
2023-04-23T05:22:18.271Z,96140.44
2023-04-23T05:24:47.234Z,96144.06
2023-04-23T05:27:14.823Z,96142.47
2023-04-23T05:29:42.411Z,96144.66
2023-04-23T05:32:10.439Z,96150.09
2023-04-23T05:34:38.056Z,96153.06
2023-04-23T05:37:06.191Z,96155.06
2023-04-23T05:39:33.914Z,96145.97
2023-04-23T05:42:03.082Z,96152.81
2023-04-23T05:44:30.659Z,96147.56
2023-04-23T05:46:58.246Z,96145.41
2023-04-23T05:49:27.118Z,96148.00
2023-04-23T05:51:54.700Z,96144.16
2023-04-23T05:54:22.494Z,96138.47
2023-04-23T05:56:50.015Z,96149.56
2023-04-23T05:59:18.924Z,96152.75
2023-04-23T06:01:47.763Z,96161.06
2023-04-23T06:04:15.880Z,96157.41
2023-04-23T06:06:43.972Z,96155.97
2023-04-23T06:09:11.541Z,96163.41
2023-04-23T06:11:39.203Z,96167.66
2023-04-23T06:14:06.784Z,96165.63
2023-04-23T06:16:35.803Z,96177.69
2023-04-23T06:19:04.579Z,96175.47
2023-04-23T06:21:32.476Z,96167.59
2023-04-23T06:24:00.075Z,96169.19
2023-04-23T06:26:27.838Z,96166.81
2023-04-23T06:28:55.497Z,96158.34
2023-04-23T06:31:23.253Z,96157.31
2023-04-23T06:33:52.286Z,96141.16
2023-04-23T06:36:19.855Z,96141.38
2023-04-23T06:38:47.454Z,96150.47
2023-04-23T06:41:15.172Z,96140.97
2023-04-23T06:43:43.207Z,96145.81
2023-04-23T06:46:10.862Z,96141.16
2023-04-23T06:48:38.663Z,96150.81
2023-04-23T06:51:08.139Z,96157.69
2023-04-23T06:53:35.845Z,96147.00
2023-04-23T06:56:03.450Z,96139.53
2023-04-23T06:58:32.364Z,96135.75
2023-04-23T07:01:01.158Z,96143.47
2023-04-23T07:03:29.049Z,96142.28
2023-04-23T07:05:56.689Z,96140.69
2023-04-23T07:08:25.620Z,96145.09
2023-04-23T07:10:53.352Z,96142.88
2023-04-23T07:13:21.061Z,96145.44
2023-04-23T07:15:49.108Z,96142.75
2023-04-23T07:18:17.692Z,96142.34
2023-04-23T07:20:45.460Z,96135.63
2023-04-23T07:23:13.161Z,96133.59
2023-04-23T07:25:42.088Z,96134.75
2023-04-23T07:28:09.658Z,96125.03
2023-04-23T07:30:37.630Z,96120.50
2023-04-23T07:33:05.272Z,96112.63
2023-04-23T07:35:32.850Z,96117.28
2023-04-23T07:38:00.417Z,96124.97
2023-04-23T07:40:27.943Z,96119.78
2023-04-23T07:42:56.924Z,96125.94
2023-04-23T07:45:25.659Z,96124.19
2023-04-23T07:47:53.294Z,96125.84
2023-04-23T07:50:21.039Z,96132.06
2023-04-23T07:52:48.578Z,96130.59
2023-04-23T07:55:16.344Z,96121.91
2023-04-23T07:57:43.836Z,96130.16
2023-04-23T08:00:14.445Z,96123.44
2023-04-23T08:02:42.695Z,96118.97
2023-04-23T08:05:11.016Z,96120.22
2023-04-23T08:07:38.692Z,96118.19
2023-04-23T08:10:07.389Z,96115.59
2023-04-23T08:12:36.041Z,96112.44
2023-04-23T08:15:04.333Z,96114.31
2023-04-23T08:17:33.311Z,96108.63
2023-04-23T08:20:00.970Z,96120.22
2023-04-23T08:22:28.471Z,96114.28
2023-04-23T08:24:56.067Z,96101.56
2023-04-23T08:27:23.564Z,96111.28
2023-04-23T08:29:51.753Z,96094.19
2023-04-23T08:32:19.466Z,96101.28
2023-04-23T08:34:48.417Z,96098.22
2023-04-23T08:37:27.064Z,96102.78
2023-04-23T08:39:57.608Z,96099.00
2023-04-23T08:42:36.890Z,96105.19
2023-04-23T08:45:05.383Z,96109.53
2023-04-23T08:47:34.176Z,96113.66
2023-04-23T08:50:05.869Z,96104.16
2023-04-23T08:52:35.804Z,96107.25
2023-04-23T08:55:10.612Z,96109.53
2023-04-23T08:57:39.966Z,96100.69
2023-04-23T09:00:11.018Z,96102.44
2023-04-23T09:02:39.925Z,96095.69
2023-04-23T09:05:10.029Z,96096.28
2023-04-23T09:07:37.900Z,96087.09
2023-04-23T09:10:07.209Z,96085.84
2023-04-23T09:12:36.941Z,96089.28
2023-04-23T09:15:10.445Z,96091.78
2023-04-23T09:17:40.871Z,96090.03
2023-04-23T09:20:10.983Z,96084.56
2023-04-23T09:22:45.983Z,96074.19
2023-04-23T09:25:16.295Z,96067.91
2023-04-23T09:27:43.943Z,96071.34
2023-04-23T09:30:13.229Z,96070.06
2023-04-23T09:32:42.521Z,96066.88
2023-04-23T09:35:15.077Z,96057.59
2023-04-23T09:37:43.223Z,96054.50
2023-04-23T09:40:14.179Z,96051.44
2023-04-23T09:42:41.774Z,96045.56
2023-04-23T09:45:12.367Z,96044.84
2023-04-23T09:47:41.348Z,96042.56
2023-04-23T09:50:10.519Z,96036.66
2023-04-23T09:52:41.569Z,96040.44
2023-04-23T09:55:09.954Z,96032.38
2023-04-23T09:57:38.345Z,96031.25
2023-04-23T10:00:15.597Z,96035.75
2023-04-23T10:02:49.145Z,96027.91
2023-04-23T10:05:24.206Z,96029.53
2023-04-23T10:07:57.378Z,96028.41
2023-04-23T10:10:25.698Z,96028.06
2023-04-23T10:12:55.744Z,96023.69
2023-04-23T10:15:26.293Z,96014.66
2023-04-23T10:17:54.706Z,96018.19
2023-04-23T10:20:23.740Z,96012.94
2023-04-23T10:22:53.524Z,96009.06
2023-04-23T10:25:25.630Z,96014.91
2023-04-23T10:27:54.767Z,96017.50
2023-04-23T10:30:23.292Z,96016.34
2023-04-23T10:32:51.567Z,96013.16
2023-04-23T10:35:19.347Z,96011.81
2023-04-23T10:37:48.357Z,96010.16
2023-04-23T10:40:22.145Z,96015.84
2023-04-23T10:42:52.341Z,96008.38
2023-04-23T10:45:25.434Z,96004.81
2023-04-23T10:47:55.034Z,96000.66
2023-04-23T10:50:24.517Z,95992.56
2023-04-23T10:52:53.714Z,95992.16
2023-04-23T10:55:23.214Z,95989.38
2023-04-23T10:58:03.747Z,95984.78
2023-04-23T11:00:45.338Z,95982.16
2023-04-23T11:03:31.040Z,95972.53
2023-04-23T11:05:59.224Z,95968.91
2023-04-23T11:08:26.985Z,95964.41
2023-04-23T11:10:57.409Z,95952.28
2023-04-23T11:13:28.019Z,95948.91
2023-04-23T11:16:15.427Z,95948.75
2023-04-23T11:19:02.340Z,95947.97
2023-04-23T11:21:57.482Z,95944.78
2023-04-23T11:24:25.238Z,95938.72
2023-04-23T11:26:53.439Z,95937.34
2023-04-23T11:29:24.675Z,95936.25
2023-04-23T11:34:24.520Z,95930.16
2023-04-23T11:36:54.586Z,95924.56
2023-04-23T11:39:24.117Z,95930.09
2023-04-23T11:41:52.481Z,95924.25
2023-04-23T11:44:21.493Z,95913.66
2023-04-23T11:46:51.396Z,95917.16
2023-04-23T11:49:19.957Z,95907.13
2023-04-23T11:51:47.930Z,95906.06
2023-04-23T11:54:16.285Z,95897.56
2023-04-23T11:56:43.883Z,95903.88
2023-04-23T11:59:11.794Z,95899.59
2023-04-23T12:01:47.345Z,95905.78
2023-04-23T12:04:17.397Z,95900.41
2023-04-23T12:06:47.465Z,95891.78
2023-04-23T12:09:17.024Z,95891.72
2023-04-23T12:11:46.248Z,95890.06
2023-04-23T12:14:16.198Z,95895.13
2023-04-23T12:16:45.737Z,95881.09
2023-04-23T12:19:16.880Z,95883.25
2023-04-23T12:21:54.433Z,95884.63
2023-04-23T12:24:23.548Z,95875.16
2023-04-23T12:26:54.484Z,95879.91
2023-04-23T12:29:23.326Z,95873.63
2023-04-23T12:31:52.207Z,95876.84
2023-04-23T12:34:22.215Z,95874.25
2023-04-23T12:36:53.492Z,95868.22
2023-04-23T12:39:26.156Z,95873.56
2023-04-23T12:41:55.270Z,95871.47
2023-04-23T12:44:23.272Z,95873.88
2023-04-23T12:46:57.457Z,95866.22
2023-04-23T12:49:27.941Z,95867.56
2023-04-23T12:52:01.041Z,95854.91
2023-04-23T12:54:31.589Z,95846.97
2023-04-23T12:56:59.967Z,95846.72
2023-04-23T12:59:30.384Z,95835.31
2023-04-23T13:02:01.953Z,95822.38
2023-04-23T13:04:35.261Z,95820.78
2023-04-23T13:07:03.729Z,95814.72
2023-04-23T13:09:31.408Z,95804.66
2023-04-23T13:12:00.509Z,95809.19
2023-04-23T13:14:29.152Z,95805.50
2023-04-23T13:16:57.971Z,95805.25
2023-04-23T13:19:25.649Z,95799.66
2023-04-23T13:21:54.704Z,95798.09
2023-04-23T13:24:22.402Z,95783.78
2023-04-23T13:26:50.160Z,95778.22
2023-04-23T13:29:17.723Z,95773.19
2023-04-23T13:31:45.605Z,95770.56
2023-04-23T13:34:13.269Z,95761.03
2023-04-23T13:36:42.237Z,95761.84
2023-04-23T13:39:14.133Z,95757.34
2023-04-23T13:41:41.792Z,95755.22
2023-04-23T13:44:09.606Z,95746.47
2023-04-23T13:46:37.664Z,95739.03
2023-04-23T13:49:05.737Z,95734.28
2023-04-23T13:51:36.068Z,95733.50
2023-04-23T13:54:04.516Z,95729.00
2023-04-23T13:56:33.612Z,95731.38
2023-04-23T14:01:33.217Z,95711.78
2023-04-23T14:04:00.980Z,95707.53
2023-04-23T14:06:28.819Z,95699.06
2023-04-23T14:08:56.398Z,95697.75
2023-04-23T14:11:24.184Z,95699.06
2023-04-23T14:13:53.291Z,95702.50
2023-04-23T14:16:20.983Z,95695.88
2023-04-23T14:18:48.639Z,95691.38
2023-04-23T14:21:16.498Z,95682.13
2023-04-23T14:23:46.475Z,95689.53
2023-04-23T14:26:26.251Z,95679.72
2023-04-23T14:28:59.089Z,95688.44
2023-04-23T14:31:27.047Z,95676.22
2023-04-23T14:33:56.068Z,95681.47
2023-04-23T14:36:23.773Z,95680.66
2023-04-23T14:38:51.480Z,95685.13
2023-04-23T14:41:19.017Z,95704.13
2023-04-23T14:43:46.543Z,95730.00
2023-04-23T14:46:15.525Z,95744.75
2023-04-23T14:48:43.248Z,95703.41
2023-04-23T14:51:10.853Z,95684.47
2023-04-23T14:53:38.405Z,95685.94
2023-04-23T14:56:06.812Z,95695.84
2023-04-23T14:58:34.548Z,95685.38
2023-04-23T15:01:02.127Z,95678.41
2023-04-23T15:03:31.230Z,95674.50
2023-04-23T15:05:58.987Z,95670.81
2023-04-23T15:08:26.679Z,95653.72
2023-04-23T15:10:54.320Z,95654.06
2023-04-23T15:13:40.312Z,95654.72
2023-04-23T15:16:40.012Z,95652.09
2023-04-23T15:19:14.951Z,95651.06
2023-04-23T15:21:43.101Z,95636.31
2023-04-23T15:24:10.964Z,95637.38
2023-04-23T15:26:39.069Z,95637.88
2023-04-23T15:29:08.663Z,95632.78
2023-04-23T15:31:36.625Z,95638.53
2023-04-23T15:34:06.208Z,95633.50
2023-04-23T15:36:37.271Z,95631.38
2023-04-23T15:39:05.048Z,95629.69
2023-04-23T15:41:33.128Z,95623.25
2023-04-23T15:44:01.143Z,95620.06
2023-04-23T15:46:28.872Z,95620.94
2023-04-23T15:48:56.567Z,95621.50
2023-04-23T15:51:24.170Z,95614.84
2023-04-23T15:53:53.259Z,95618.53
2023-04-23T15:56:20.799Z,95613.28
2023-04-23T15:58:49.820Z,95610.41
2023-04-23T16:01:17.897Z,95613.34
2023-04-23T16:03:53.754Z,95608.34
2023-04-23T16:06:29.598Z,95600.91
2023-04-23T16:08:58.941Z,95599.31
2023-04-23T16:11:28.176Z,95594.06
2023-04-23T16:13:56.973Z,95596.94
2023-04-23T16:16:24.650Z,95594.84
2023-04-23T16:18:53.460Z,95593.25
2023-04-23T16:21:21.752Z,95592.22
2023-04-23T16:23:49.706Z,95582.66
2023-04-23T16:26:18.973Z,95583.38
2023-04-23T16:28:52.217Z,95583.06
2023-04-23T16:31:28.595Z,95577.75
2023-04-23T16:33:56.651Z,95573.78
2023-04-23T16:36:24.239Z,95575.06
2023-04-23T16:38:51.850Z,95569.81
2023-04-23T16:41:21.453Z,95561.09
2023-04-23T16:43:49.025Z,95558.72
2023-04-23T16:46:16.908Z,95553.44
2023-04-23T16:48:45.667Z,95551.84
2023-04-23T16:51:14.248Z,95548.19
2023-04-23T16:53:41.837Z,95551.59
2023-04-23T16:56:09.605Z,95542.66
2023-04-23T16:58:38.541Z,95541.09
2023-04-23T17:01:06.256Z,95540.22
2023-04-23T17:03:36.452Z,95533.84
2023-04-23T17:06:12.711Z,95538.03
2023-04-23T17:08:41.128Z,95535.84
2023-04-23T17:11:08.955Z,95541.63
2023-04-23T17:13:37.921Z,95545.28
2023-04-23T17:16:05.593Z,95544.25
2023-04-23T17:18:33.234Z,95548.00
2023-04-23T17:21:01.208Z,95556.19
2023-04-23T17:23:28.900Z,95592.00
2023-04-23T17:25:56.486Z,95717.53
2023-04-23T17:28:24.062Z,95737.28
2023-04-23T17:30:53.948Z,95770.81
2023-04-23T17:33:23.765Z,95751.66
2023-04-23T17:35:53.239Z,95747.53
2023-04-23T17:38:21.675Z,95753.63
2023-04-23T17:40:50.572Z,95738.34
2023-04-23T17:43:18.611Z,95739.72
2023-04-23T17:45:47.547Z,95717.38
2023-04-23T17:48:16.803Z,95683.56
2023-04-23T17:50:44.768Z,95685.38
2023-04-23T17:53:12.533Z,95686.50
2023-04-23T17:55:40.125Z,95682.41
2023-04-23T17:58:08.966Z,95682.56
2023-04-23T18:00:36.896Z,95676.53
2023-04-23T18:03:06.402Z,95675.34
2023-04-23T18:05:35.834Z,95669.47
2023-04-23T18:08:04.473Z,95663.41
2023-04-23T18:10:32.272Z,95654.44
2023-04-23T18:13:03.747Z,95642.91
2023-04-23T18:15:33.123Z,95622.47
2023-04-23T18:18:00.769Z,95631.56
2023-04-23T18:20:29.210Z,95640.66
2023-04-23T18:22:58.705Z,95633.00
2023-04-23T18:25:26.820Z,95627.78
2023-04-23T18:27:57.977Z,95637.25
2023-04-23T18:30:26.214Z,95630.63
2023-04-23T18:33:03.862Z,95642.19
2023-04-23T18:35:31.498Z,95644.88
2023-04-23T18:38:06.885Z,95646.53
2023-04-23T18:40:34.606Z,95656.44
2023-04-23T18:43:02.718Z,95653.25
2023-04-23T18:45:30.389Z,95653.09
2023-04-23T18:48:00.082Z,95656.94
2023-04-23T18:50:38.369Z,95662.38
2023-04-23T18:53:07.604Z,95664.66
2023-04-23T18:55:35.425Z,95674.16
2023-04-23T18:58:03.027Z,95680.41
2023-04-23T19:00:30.847Z,95683.03
2023-04-23T19:02:59.065Z,95683.44
2023-04-23T19:05:27.053Z,95692.72
2023-04-23T19:07:54.628Z,95689.19
2023-04-23T19:10:23.780Z,95694.69
2023-04-23T19:12:51.315Z,95693.69
2023-04-23T19:15:19.088Z,95699.97
2023-04-23T19:17:46.787Z,95709.38
2023-04-23T19:20:15.643Z,95705.78
2023-04-23T19:22:43.320Z,95715.78
2023-04-23T19:25:11.138Z,95721.41
2023-04-23T19:27:40.029Z,95722.69
2023-04-23T19:30:09.992Z,95720.53
2023-04-23T19:32:37.575Z,95722.41
2023-04-23T19:35:05.842Z,95711.56
2023-04-23T19:37:33.368Z,95717.44
2023-04-23T19:40:00.959Z,95726.13
2023-04-23T19:42:29.916Z,95718.88
2023-04-23T19:44:58.843Z,95724.34
2023-04-23T19:47:26.610Z,95719.53
2023-04-23T19:49:54.223Z,95724.16
2023-04-23T19:52:25.031Z,95730.41
2023-04-23T19:54:52.628Z,95734.00
2023-04-23T19:57:22.200Z,95729.38
2023-04-23T19:59:50.070Z,95731.00
2023-04-23T20:02:18.956Z,95727.34
2023-04-23T20:04:47.424Z,95734.19
2023-04-23T20:07:15.377Z,95729.56
2023-04-23T20:09:43.169Z,95735.38
2023-04-23T20:12:11.021Z,95739.00
2023-04-23T20:14:38.555Z,95732.78
2023-04-23T20:17:06.728Z,95725.94
2023-04-23T20:19:35.734Z,95717.72
2023-04-23T20:22:03.912Z,95715.72
2023-04-23T20:24:31.530Z,95714.94
2023-04-23T20:26:59.086Z,95731.19
2023-04-23T20:29:27.456Z,95775.56
2023-04-23T20:31:55.071Z,95784.38
2023-04-23T20:34:22.609Z,95784.72
2023-04-23T20:36:52.072Z,95793.34
2023-04-23T20:39:23.910Z,95794.28
2023-04-23T20:41:52.353Z,95799.88
2023-04-23T20:44:23.265Z,95796.34
2023-04-23T20:46:51.412Z,95789.25
2023-04-23T20:49:19.292Z,95797.03
2023-04-23T20:51:47.262Z,95802.88
2023-04-23T20:54:16.392Z,95805.47
2023-04-23T20:56:44.189Z,95803.50
2023-04-23T20:59:12.266Z,95802.53
2023-04-23T21:01:39.895Z,95812.63
2023-04-23T21:04:07.720Z,95805.78
2023-04-23T21:06:35.469Z,95799.38
2023-04-23T21:09:04.583Z,95797.63
2023-04-23T21:11:33.592Z,95809.34
2023-04-23T21:14:01.549Z,95798.34
2023-04-23T21:16:29.246Z,95793.16
2023-04-23T21:18:56.829Z,95791.75
2023-04-23T21:21:27.867Z,95785.53
2023-04-23T21:23:55.842Z,95791.56
2023-04-23T21:26:23.973Z,95775.44
2023-04-23T21:28:52.833Z,95778.44
2023-04-23T21:31:31.034Z,95777.00
2023-04-23T21:33:58.569Z,95774.94
2023-04-23T21:36:26.168Z,95772.66
2023-04-23T21:38:53.930Z,95775.63
2023-04-23T21:41:21.512Z,95770.00
2023-04-23T21:46:30.583Z,95775.47
2023-04-23T21:49:10.634Z,95781.22
2023-04-23T21:51:46.459Z,95763.75
2023-04-23T21:54:20.660Z,95764.28
2023-04-23T21:57:05.615Z,95761.25
2023-04-23T22:10:21.913Z,95745.25
2023-04-23T22:13:00.398Z,95750.06
2023-04-23T22:21:51.226Z,95756.03
2023-04-23T23:23:36.665Z,95732.66
2023-04-23T23:26:04.182Z,95720.22
2023-04-23T23:28:31.802Z,95723.88
2023-04-23T23:30:59.509Z,95714.41
2023-04-23T23:33:27.295Z,95715.84
2023-04-23T23:35:55.195Z,95718.25
2023-04-23T23:38:22.727Z,95709.81
2023-04-23T23:40:51.601Z,95711.25
2023-04-23T23:43:19.099Z,95709.06
2023-04-23T23:45:46.825Z,95711.09
2023-04-23T23:48:14.410Z,95701.03
2023-04-23T23:50:41.941Z,95706.50
2023-04-23T23:53:09.462Z,95707.88
2023-04-23T23:55:38.535Z,95703.00
2023-04-23T23:58:07.517Z,95699.34
